Aviation Digital Data Service (ADDS)

Output produced by METARs form (0628 UTC 19 January 2017)
found at http://www.aviationweather.gov/adds/metars/
 
KTHV 190553Z AUTO 00000KT 10SM OVC039 06/03 A3005 RMK AO2 SLP180 T00610028 10078 20061 50001
KTHV 190453Z AUTO 29005KT 10SM OVC040 06/03 A3005 RMK AO2 SLP181 T00610028 401220039
KTHV 190353Z AUTO 29004KT 10SM OVC030 06/03 A3005 RMK AO2 SLP179 T00610028
KTHV 190334Z AUTO 28004KT 10SM OVC030 06/03 A3005 RMK AO2 T00610033
KTHV 190307Z AUTO 27003KT 10SM OVC029 06/03 A3005 RMK AO2 T00610033
KTHV 190253Z AUTO 00000KT 10SM OVC030 06/03 A3005 RMK AO2 SLP179 T00610033 58000
KTHV 190153Z AUTO 28003KT 10SM OVC030 07/03 A3006 RMK AO2 SLP185 T00670033
KTHV 190053Z AUTO 32005KT 10SM OVC031 07/03 A3006 RMK AO2 SLP184 T00670033
KTHV 182353Z AUTO 30004KT 10SM OVC032 08/03 A3005 RMK AO2 SLP179 T00780033 10122 20078 51023
KTHV 182253Z AUTO 29005KT 10SM OVC033 08/03 A3003 RMK AO2 SLP174 T00830033
KTHV 182153Z AUTO 30012KT 10SM OVC035 09/03 A3000 RMK AO2 SLP165 T00940033
KTHV 182053Z AUTO 30007KT 10SM OVC035 09/04 A2998 RMK AO2 SLP156 T00940039 53017
KTHV 181953Z AUTO 30013KT 10SM OVC036 10/04 A2995 RMK AO2 SLP148 T01000039
KTHV 181853Z AUTO 31014G19KT 10SM BKN036 BKN085 OVC100 11/05 A2994 RMK AO2 SLP142 T01060050
KTHV 181753Z AUTO 30008KT 10SM BKN080 BKN100 BKN120 11/06 A2993 RMK AO2 SLP139 60001 T01060061 10106 20039 55009
KTHV 181653Z AUTO 29006KT 10SM OVC075 10/08 A2993 RMK AO2 SLP138 T01000078
KTHV 181553Z AUTO 00000KT 6SM BR BKN070 BKN085 OVC110 08/08 A2994 RMK AO2 RAE34 SLP144 P0001 T00830078
KTHV 181417Z AUTO 31004KT 2 1/2SM BR SCT003 OVC055 04/04 A2994 RMK AO2 T00440044
KTHV 181405Z AUTO 31003KT 2 1/2SM BR BKN003 OVC055 04/04 A2994 RMK AO2 T00440044
KTHV 181353Z AUTO 00000KT 2 1/2SM BR FEW002 OVC050 04/04 A2994 RMK AO2 SLP143 T00440044
KTHV 181346Z AUTO 34003KT 2 1/2SM BR FEW002 OVC050 04/04 A2994 RMK AO2 T00440044
KTHV 181338Z AUTO 34005KT 2 1/2SM BR OVC050 04/04 A2993 RMK AO2 T00440044
KTHV 181331Z AUTO 35006KT 2SM BR OVC050 04/04 A2993 RMK AO2 T00390039
KTHV 181319Z AUTO 00000KT 2 1/2SM BR OVC050 04/04 A2991 RMK AO2 T00390039
KTHV 181308Z AUTO 29004KT 1 1/2SM BR SCT002 OVC050 04/04 A2992 RMK AO2 T00390039
KTHV 181253Z AUTO 00000KT 1 1/4SM BR BKN002 OVC050 04/04 A2992 RMK AO2 SLP137 T00390039
KTHV 181236Z AUTO 00000KT 1SM BR OVC002 04/04 A2992 RMK AO2 T00390039
KTHV 181226Z AUTO 00000KT 1 1/4SM BR OVC003 04/04 A2992 RMK AO2 T00390039
KTHV 181217Z AUTO 29003KT 1SM BR OVC003 04/04 A2992 RMK AO2 T00390039
KTHV 181205Z AUTO 00000KT 1 1/4SM BR OVC003 04/04 A2991 RMK AO2 T00390039
KTHV 181153Z AUTO 00000KT 3/4SM BR VV003 04/04 A2991 RMK AO2 RAE1054 SLP132 P0000 60000 70039 T00390039 10050 20039 50005
KTHV 181053Z AUTO 00000KT 1/4SM -RA FG VV002 04/04 A2991 RMK AO2 RAB01E12B45 SLP134 P0000 T00390039
KTHV 180953Z AUTO 00000KT 1/4SM FG VV002 04/04 A2991 RMK AO2 SLP133 T00390039
KTHV 180853Z AUTO 03004KT 1/4SM FG VV002 04/04 A2989 RMK AO2 SLP127 60000 T00390039 51003
KTHV 180753Z AUTO 00000KT 1/4SM FG VV002 04/04 A2989 RMK AO2 RAB08E33 SLP126 P0000 T00440044
KTHV 180653Z AUTO 00000KT 1/2SM FG VV002 04/04 A2989 RMK AO2 RAE0557 SLP125 P0000 T00440044
KTHV 180632Z AUTO 01005KT 3/4SM BR OVC002 04/04 A2988 RMK AO2 RAE0557 P0000 T00440044
KTHV 180626Z AUTO 02006KT 1 3/4SM BR OVC002 05/05 A2988 RMK AO2 RAE0557 P0000 T00500050
KTHV 180619Z AUTO 36004KT 2 1/2SM BR OVC002 05/05 A2988 RMK AO2 RAE0557 P0000 T00500050
KTHV 180557Z AUTO 36003KT 1 1/4SM BR OVC002 05/05 A2988 RMK AO2 RAE57 P0000 T00500050
KTHV 180553Z AUTO 00000KT 3/4SM -RA BR VV002 05/05 A2988 RMK AO2 RAB42 SLP123 P0002 60018 T00500050 10050 20050 58013
KTHV 180535Z AUTO 02003KT 1 1/4SM BR OVC002 05/05 A2989 RMK AO2 T00500050 TSNO
KTHV 180526Z AUTO 05003KT 2SM BR OVC002 05/05 A2988 RMK AO2 T00500050
KTHV 180453Z AUTO 00000KT 4SM BR OVC002 05/05 A2989 RMK AO2 RAE27 SLP128 P0003 T00500050 400560011
KTHV 180437Z AUTO 00000KT 4SM BR OVC002 05/05 A2990 RMK AO2 RAE27 P0003 T00500050
KTHV 180415Z AUTO 12005KT 2 1/2SM -RA BR BKN003 BKN019 OVC065 05/05 A2990 RMK AO2 PRESFR P0003 T00500050
KTHV 180403Z AUTO 00000KT 2SM RA BR BKN003 OVC019 05/05 A2992 RMK AO2 P0002 T00500050
KTHV 180353Z AUTO 00000KT 4SM -RA BR OVC003 05/05 A2992 RMK AO2 SLP138 P0011 T00500050
KTHV 180330Z AUTO 03003KT 2SM +RA BR OVC002 05/05 A2993 RMK AO2 P0004 T00500050
KTHV 180305Z AUTO 05004KT 3SM -RA BR OVC002 05/05 A2992 RMK AO2 P0000 T00500050
KTHV 180253Z AUTO 03004KT 2 1/2SM -RA BR OVC003 05/05 A2992 RMK AO2 RAB12 SLP136 P0001 60002 T00500050 58014
KTHV 180243Z AUTO 03003KT 2SM -RA BR OVC003 05/05 A2992 RMK AO2 RAB12 P0000 T00500050
KTHV 180228Z AUTO 05004KT 3SM -RA BR OVC003 05/05 A2992 RMK AO2 RAB12 P0000 T00500050
KTHV 180224Z AUTO 00000KT 2SM -RA BR OVC003 05/05 A2992 RMK AO2 RAB12 P0000 T00500050
KTHV 180210Z AUTO 00000KT 1SM BR OVC003 05/05 A2992 RMK AO2 T00500050
KTHV 180200Z AUTO 07005KT 2SM BR OVC003 05/05 A2993 RMK AO2 T00500050
KTHV 180153Z AUTO 06003KT 1 3/4SM BR OVC003 05/05 A2994 RMK AO2 RAB10E36 SLP143 P0001 T00500050
KTHV 180132Z AUTO 08003KT 1 1/4SM -RA BR OVC003 05/05 A2993 RMK AO2 RAB10 P0001 T00500050
KTHV 180122Z AUTO 10004KT 3/4SM -RA BR OVC004 05/05 A2993 RMK AO2 RAB10 P0000 T00500050
KTHV 180114Z AUTO 10003KT 1 1/2SM -RA BR OVC004 05/05 A2994 RMK AO2 RAB10 P0000 T00500050
KTHV 180058Z AUTO 11004KT 2SM BR OVC004 05/05 A2995 RMK AO2 T00500050
KTHV 180053Z AUTO 09004KT 2 1/2SM BR OVC005 05/05 A2995 RMK AO2 RAE2355 SLP147 P0000 T00500050
KTHV 180038Z AUTO 10003KT 4SM BR OVC005 05/05 A2995 RMK AO2 RAE2355 P0000 T00500050
KTHV 180004Z AUTO 00000KT 5SM BR BKN004 OVC013 05/05 A2996 RMK AO2 RAE2355 P0000 T00500050
KTHV 172353Z AUTO 06005KT 4SM -RA BR SCT004 OVC013 05/05 A2996 RMK AO2 SLP150 P0004 60018 T00500050 10056 20050 58008
KTHV 172346Z AUTO 13009KT 3SM -RA BR BKN011 OVC018 05/05 A2994 RMK AO2 P0004 T00500050
KTHV 172342Z AUTO 14010KT 2 1/2SM -RA BR SCT007 OVC016 05/05 A2994 RMK AO2 PRESFR P0004 T00500050
KTHV 172335Z AUTO 13004KT 2SM -RA BR SCT007 BKN013 OVC019 05/05 A2997 RMK AO2 P0004 T00500050
KTHV 172312Z AUTO 06003KT 3SM -RA BR OVC007 05/05 A2997 RMK AO2 P0001 T00500050
KTHV 172253Z AUTO 08003KT 5SM -RA BR OVC008 05/05 A2998 RMK AO2 RAE10B27 SLP156 P0002 T00500050
KTHV 172231Z AUTO 00000KT 4SM -RA BR BKN007 OVC011 05/05 A2999 RMK AO2 RAE10B27 CIG 003V010 P0002 T00500050
KTHV 172210Z AUTO 07003KT 4SM BR FEW005 OVC010 05/05 A2997 RMK AO2 RAE10 P0002 T00500050
KTHV 172202Z AUTO 10003KT 2 1/2SM -RA BR SCT005 BKN010 OVC016 05/05 A2997 RMK AO2 P0002 T00500050
KTHV 172136Z AUTO 14005KT 1 3/4SM RA BR OVC007 05/05 A2998 RMK AO2 RAE2057B09 P0005 T00500050
KTHV 172128Z AUTO 00000KT 2SM RA BR OVC007 06/05 A2999 RMK AO2 RAE2057B09 P0002 T00560050
KTHV 172101Z AUTO 17003KT 5SM BR OVC007 06/05 A2999 RMK AO2 RAE2057 P0000 T00560050
KTHV 172053Z AUTO 14007KT 4SM -RA BR OVC008 06/05 A2998 RMK AO2 SLP159 P0002 60004 T00560050 56022
KTHV 172010Z AUTO 15004KT 4SM -RA BR OVC008 06/05 A2998 RMK AO2 P0001 T00560050
KTHV 172003Z AUTO 19003KT 2 1/2SM -RA BR OVC009 06/06 A2999 RMK AO2 CIG 007V010 P0001 T00560056
KTHV 171953Z AUTO 16004KT 4SM -RA BR OVC009 06/05 A2999 RMK AO2 RAB03E34B51 CIG 008V012 SLP160 P0001 T00560050
KTHV 171940Z AUTO 15006KT 6SM BR OVC010 06/05 A3000 RMK AO2 RAB03E34 CIG 007V012 P0000 T00560050
KTHV 171924Z AUTO 14006KT 4SM -RA BR OVC008 06/06 A3000 RMK AO2 RAB03 CIG 007V011 P0000 T00560056
KTHV 171853Z AUTO 00000KT 4SM BR OVC007 05/05 A3002 RMK AO2 RAB07E45 SLP172 P0001 T00500050
KTHV 171836Z AUTO 13004KT 3SM -RA BR OVC007 05/04 A3003 RMK AO2 RAB07 P0000 T00500044
KTHV 171829Z AUTO 14005KT 2 1/2SM -RA BR OVC007 05/04 A3003 RMK AO2 RAB07 PRESFR P0000 T00500044